Impacts METAR Board
IDs:

KLAX - Los Angeles Intl, CA, US

Updated at: 0200 UTC 23 Oct 2018
Potential Impact None Slight Moderate High
Time 22/14Z 22/15Z 22/16Z 22/17Z 22/18Z 22/19Z 22/20Z 22/21Z 22/22Z 22/23Z 23/00Z 23/01Z 23/02Z
Temp65 65 66 68 70 70 71 70 69 68 68 66 66
Dewpt58 58 58 58 58 58 58 58 59 58 59 59 59
Altim29.90 29.91 29.93 29.93 29.92 29.91 29.89 29.87 29.86 29.86 29.85 29.85 29.86
VIS8 7 7 9 9 9 9 10 10 10 10 10 10
CIG16 16 17 -- -- -- -- -- -- -- -- -- --
CoverBKNBKNBKNSCTFEWFEWCLRFEWFEWSCTSCTSCTSCT
FltCatMVFRMVFRMVFRVFRVFRVFRVFRVFRVFRVFRVFRVFRVFR
WX--------------------------
WDir11080401100240240250270260260260270
WSpd5 4 4 5 0 6 9 12 9 12 12 11 10
WGst-- -- -- -- -- -- -- -- -- -- -- -- --
Raw hourly METARs
KLAX 221353Z 11005KT 8SM BKN016 18/14 A2990 RMK AO2 SLP122 T01830144 $
KLAX 221453Z 08004KT 7SM BKN016 18/14 A2991 RMK AO2 SLP128 T01830144 53011 $
KLAX 221553Z 04004KT 7SM BKN017 19/14 A2993 RMK AO2 SLP135 T01890144 $
KLAX 221653Z 11005KT 9SM SCT018 20/14 A2993 RMK AO2 SLP134 SCT V BKN T02000144 $
KLAX 221753Z 00000KT 9SM FEW020 21/14 A2992 RMK AO2 SLP132 T02110144 10217 20172 50004 $
KLAX 221853Z 24006KT 9SM FEW021 21/14 A2991 RMK AO2 SLP126 T02110144 $
KLAX 221953Z 24009KT 9SM CLR 22/14 A2989 RMK AO2 SLP120 T02170144 $
KLAX 222053Z 25012KT 10SM FEW027 21/14 A2987 RMK AO2 SLP115 T02110144 57017 $
KLAX 222153Z 27009KT 10SM FEW060 FEW200 21/15 A2986 RMK AO2 SLP110 T02060150 $
KLAX 222253Z 26012KT 10SM FEW060 SCT200 20/14 A2986 RMK AO2 SLP109 T02000144 $
KLAX 222353Z 26012KT 10SM FEW060 SCT200 20/15 A2985 RMK AO2 SLP108 T02000150 10222 20200 56007 $
KLAX 230053Z 26011KT 10SM FEW080 SCT200 SCT250 19/15 A2985 RMK AO2 SLP107 T01890150 $
KLAX 230153Z 27010KT 10SM FEW080 FEW200 SCT250 19/15 A2986 RMK AO2 SLP111 T01890150 $



Page loaded:  02:40 UTC  |   07:40 PM Pacific  |   08:40 PM Mountain  |   09:40 PM Central  |   10:40 PM Eastern

 

ADVISORIES

FORECASTS

FORECASTS

OBSERVATIONS

USER TOOLS

ABOUT US